createdAt,value
2023-03-20T00:02:22.104Z,101954.97
2023-03-20T00:04:50.567Z,101959.59
2023-03-20T00:07:18.782Z,101959.88
2023-03-20T00:09:47.820Z,101961.00
2023-03-20T00:12:24.727Z,101958.28
2023-03-20T00:14:53.090Z,101959.88
2023-03-20T00:17:23.044Z,101963.38
2023-03-20T00:19:51.397Z,101961.47
2023-03-20T00:22:19.584Z,101962.59
2023-03-20T00:24:47.793Z,101967.19
2023-03-20T00:27:18.986Z,101961.00
2023-03-20T00:29:47.687Z,101951.78
2023-03-20T00:32:16.474Z,101949.06
2023-03-20T00:34:44.663Z,101954.00
2023-03-20T00:37:12.987Z,101949.72
2023-03-20T00:39:42.233Z,101957.03
2023-03-20T00:42:22.504Z,101952.72
2023-03-20T00:44:55.936Z,101960.06
2023-03-20T00:47:25.757Z,101951.47
2023-03-20T00:49:55.910Z,101949.88
2023-03-20T00:52:24.909Z,101960.22
2023-03-20T00:54:53.270Z,101938.59
2023-03-20T00:57:26.608Z,101943.34
2023-03-20T00:59:59.449Z,101936.34
2023-03-20T01:02:31.104Z,101938.28
2023-03-20T01:04:59.891Z,101930.94
2023-03-20T01:07:28.809Z,101933.34
2023-03-20T01:09:57.066Z,101919.03
2023-03-20T01:12:26.720Z,101925.22
2023-03-20T01:14:58.926Z,101909.81
2023-03-20T01:17:29.061Z,101908.22
2023-03-20T01:19:57.322Z,101905.03
2023-03-20T01:22:25.595Z,101905.34
2023-03-20T01:24:53.829Z,101915.66
2023-03-20T01:27:23.633Z,101922.19
2023-03-20T01:29:53.689Z,101919.47
2023-03-20T01:32:21.884Z,101918.72
2023-03-20T01:34:50.077Z,101916.03
2023-03-20T01:37:24.722Z,101921.06
2023-03-20T01:39:52.991Z,101922.97
2023-03-20T01:42:21.882Z,101926.97
2023-03-20T01:44:50.131Z,101937.00
2023-03-20T01:47:23.540Z,101946.19
2023-03-20T01:50:27.497Z,101958.91
2023-03-20T01:53:03.089Z,101957.50
2023-03-20T01:55:32.187Z,101942.69
2023-03-20T01:58:05.317Z,101939.19
2023-03-20T02:00:33.809Z,101942.69
2023-03-20T02:03:04.564Z,101936.50
2023-03-20T02:05:34.065Z,101946.19
2023-03-20T02:08:16.606Z,101964.31
2023-03-20T02:10:47.653Z,101963.53
2023-03-20T02:13:17.614Z,101940.00
2023-03-20T02:15:59.259Z,101930.47
2023-03-20T02:18:29.596Z,101929.69
2023-03-20T02:21:48.407Z,101938.59
2023-03-20T02:25:15.370Z,101946.69
2023-03-20T02:28:02.745Z,101950.53
2023-03-20T02:31:01.944Z,101933.00
2023-03-20T02:34:17.425Z,101940.34
2023-03-20T02:37:40.849Z,101940.97
2023-03-20T02:40:19.045Z,101923.78
2023-03-20T02:42:57.836Z,101912.03
2023-03-20T02:45:30.623Z,101911.56
2023-03-20T02:48:13.161Z,101913.00
2023-03-20T02:50:49.228Z,101906.63
2023-03-20T02:53:36.007Z,101918.06
2023-03-20T02:56:14.676Z,101915.22
2023-03-20T02:58:51.598Z,101922.84
2023-03-20T03:01:25.008Z,101928.06
2023-03-20T03:03:58.113Z,101946.03
2023-03-20T03:06:31.599Z,101955.38
2023-03-20T03:09:06.712Z,101949.84
2023-03-20T03:11:42.172Z,101948.06
2023-03-20T03:14:18.575Z,101946.28
2023-03-20T03:16:48.753Z,101947.72
2023-03-20T03:19:23.145Z,101950.56
2023-03-20T03:21:51.885Z,101949.31
2023-03-20T03:24:40.339Z,101943.91
2023-03-20T03:27:19.635Z,101934.22
2023-03-20T03:29:53.933Z,101930.19
2023-03-20T03:32:30.424Z,101933.22
2023-03-20T03:34:59.844Z,101926.56
2023-03-20T03:37:43.955Z,101929.56
2023-03-20T03:40:23.037Z,101927.50
2023-03-20T03:42:58.344Z,101922.69
2023-03-20T03:45:33.853Z,101910.16
2023-03-20T03:48:08.712Z,101917.28
2023-03-20T03:50:47.932Z,101906.81
2023-03-20T03:53:19.348Z,101921.72
2023-03-20T03:55:53.839Z,101910.44
2023-03-20T03:58:27.661Z,101904.56
2023-03-20T04:00:57.416Z,101890.91
2023-03-20T04:03:30.858Z,101898.50
2023-03-20T04:06:01.844Z,101895.34
2023-03-20T04:08:30.055Z,101884.03
2023-03-20T04:10:59.887Z,101891.19
2023-03-20T04:13:28.265Z,101898.28
2023-03-20T04:15:56.542Z,101897.81
2023-03-20T04:18:24.817Z,101898.41
2023-03-20T04:20:53.566Z,101903.81
2023-03-20T04:23:21.734Z,101894.47
2023-03-20T04:25:50.736Z,101899.66
2023-03-20T04:28:20.463Z,101908.84
2023-03-20T04:30:54.367Z,101893.78
2023-03-20T04:33:23.370Z,101894.41
2023-03-20T04:35:51.889Z,101896.13
2023-03-20T04:38:21.172Z,101887.69
2023-03-20T04:40:49.475Z,101896.69
2023-03-20T04:43:18.355Z,101896.34
2023-03-20T04:45:47.942Z,101901.22
2023-03-20T04:48:16.323Z,101889.16
2023-03-20T04:50:46.688Z,101889.47
2023-03-20T04:53:15.349Z,101891.72
2023-03-20T04:55:43.538Z,101888.50
2023-03-20T04:58:11.764Z,101891.50
2023-03-20T05:00:40.094Z,101895.31
2023-03-20T05:03:09.803Z,101895.63
2023-03-20T05:05:38.132Z,101893.50
2023-03-20T05:08:07.183Z,101896.53
2023-03-20T05:10:35.440Z,101885.28
2023-03-20T05:13:03.612Z,101876.97
2023-03-20T05:15:31.973Z,101874.09
2023-03-20T05:18:00.201Z,101868.84
2023-03-20T05:20:29.937Z,101879.13
2023-03-20T05:22:58.107Z,101872.94
2023-03-20T05:25:26.612Z,101881.31
2023-03-20T05:27:54.796Z,101883.56
2023-03-20T05:30:23.044Z,101887.31
2023-03-20T05:32:52.165Z,101885.25
2023-03-20T05:35:20.679Z,101893.63
2023-03-20T05:37:50.366Z,101891.25
2023-03-20T05:40:19.723Z,101888.56
2023-03-20T05:42:47.905Z,101885.56
2023-03-20T05:45:16.635Z,101892.84
2023-03-20T05:47:44.800Z,101892.84
2023-03-20T05:50:13.547Z,101882.06
2023-03-20T05:52:42.204Z,101886.94
2023-03-20T05:55:12.085Z,101886.66
2023-03-20T05:57:40.336Z,101887.47
2023-03-20T06:00:10.736Z,101882.88
2023-03-20T06:02:39.606Z,101882.88
2023-03-20T06:05:08.322Z,101881.28
2023-03-20T06:07:36.488Z,101877.25
2023-03-20T06:10:04.989Z,101880.47
2023-03-20T06:12:34.595Z,101883.16
2023-03-20T06:15:02.827Z,101887.47
2023-03-20T06:17:31.145Z,101898.72
2023-03-20T06:19:59.321Z,101900.00
2023-03-20T06:22:27.503Z,101899.72
2023-03-20T06:24:57.376Z,101918.59
2023-03-20T06:27:25.665Z,101917.94
2023-03-20T06:29:55.307Z,101911.75
2023-03-20T06:32:23.550Z,101913.34
2023-03-20T06:34:51.980Z,101912.56
2023-03-20T06:37:21.128Z,101915.75
2023-03-20T06:39:49.894Z,101920.53
2023-03-20T06:42:18.479Z,101919.94
2023-03-20T06:44:47.491Z,101917.72
2023-03-20T06:47:17.377Z,101919.81
2023-03-20T06:49:46.109Z,101917.63
2023-03-20T06:52:18.405Z,101930.47
2023-03-20T06:54:47.008Z,101936.19
2023-03-20T06:57:17.733Z,101931.72
2023-03-20T06:59:45.995Z,101948.13
2023-03-20T07:02:14.501Z,101940.50
2023-03-20T07:04:44.279Z,101946.88
2023-03-20T07:07:12.826Z,101944.66
2023-03-20T07:09:41.211Z,101944.09
2023-03-20T07:12:14.836Z,101948.84
2023-03-20T07:14:43.056Z,101958.22
2023-03-20T07:17:12.739Z,101947.31
2023-03-20T07:19:41.486Z,101962.56
2023-03-20T07:22:23.135Z,101957.06
2023-03-20T07:24:51.918Z,101957.72
2023-03-20T07:27:21.216Z,101956.50
2023-03-20T07:29:49.683Z,101959.06
2023-03-20T07:32:18.001Z,101967.81
2023-03-20T07:34:47.639Z,101962.91
2023-03-20T07:37:17.436Z,101968.19
2023-03-20T07:39:45.734Z,101969.16
2023-03-20T07:42:14.785Z,101967.75
2023-03-20T07:44:43.206Z,101976.22
2023-03-20T07:47:11.453Z,101966.06
2023-03-20T07:49:39.756Z,101970.69
2023-03-20T07:52:07.999Z,101977.53
2023-03-20T07:54:37.615Z,101969.31
2023-03-20T07:57:06.502Z,101979.66
2023-03-20T07:59:34.716Z,101979.50
2023-03-20T08:02:02.980Z,101977.28
2023-03-20T08:04:31.225Z,101972.03
2023-03-20T08:06:59.759Z,101981.44
2023-03-20T08:09:28.178Z,101987.66
2023-03-20T08:11:57.782Z,101976.03
2023-03-20T08:14:26.147Z,101976.38
2023-03-20T08:17:12.323Z,101979.84
2023-03-20T08:19:41.729Z,101971.44
2023-03-20T08:22:09.978Z,101975.25
2023-03-20T08:24:38.180Z,101977.94
2023-03-20T08:27:08.129Z,101971.75
2023-03-20T08:29:36.744Z,101978.44
2023-03-20T08:32:05.323Z,101978.59
2023-03-20T08:34:33.702Z,101979.56
2023-03-20T08:37:04.238Z,101981.63
2023-03-20T08:39:33.169Z,101977.69
2023-03-20T08:42:01.551Z,101996.41
2023-03-20T08:44:31.106Z,101988.97
2023-03-20T08:46:59.611Z,101991.03
2023-03-20T08:49:28.962Z,101991.84
2023-03-20T08:51:57.217Z,101987.69
2023-03-20T08:54:25.457Z,101983.88
2023-03-20T08:56:53.828Z,101983.88
2023-03-20T08:59:22.023Z,101989.28
2023-03-20T09:01:51.626Z,101983.88
2023-03-20T09:04:20.287Z,101983.88
2023-03-20T09:06:48.655Z,101985.50
2023-03-20T09:09:19.487Z,101973.91
2023-03-20T09:11:47.728Z,101974.03
2023-03-20T09:14:16.301Z,101985.81
2023-03-20T09:16:44.618Z,101986.75
2023-03-20T09:19:14.227Z,101980.72
2023-03-20T09:21:42.451Z,101978.50
2023-03-20T09:24:11.493Z,101971.50
2023-03-20T09:26:40.079Z,101976.91
2023-03-20T09:29:08.325Z,101983.13
2023-03-20T09:31:36.689Z,101981.69
2023-03-20T09:34:05.286Z,101979.44
2023-03-20T09:36:35.090Z,101990.41
2023-03-20T09:39:04.126Z,101988.22
2023-03-20T09:41:45.798Z,101979.31
2023-03-20T09:44:46.035Z,101984.22
2023-03-20T09:47:22.629Z,101980.41
2023-03-20T09:50:10.995Z,101983.59
2023-03-20T09:52:45.775Z,101989.00
2023-03-20T09:55:18.334Z,101990.13
2023-03-20T09:57:51.504Z,101988.50
2023-03-20T10:00:22.596Z,102003.47
2023-03-20T10:02:53.822Z,101991.84
2023-03-20T10:05:26.957Z,101993.44
2023-03-20T10:08:00.930Z,101994.56
2023-03-20T10:10:40.501Z,101989.16
2023-03-20T10:13:31.115Z,101985.34
2023-03-20T10:16:07.042Z,101971.03
2023-03-20T10:18:39.585Z,101984.06
2023-03-20T10:21:15.387Z,101980.56
2023-03-20T10:23:52.892Z,101976.59
2023-03-20T10:26:24.269Z,101970.88
2023-03-20T10:28:58.268Z,101976.75
2023-03-20T10:31:44.567Z,101975.63
2023-03-20T10:34:30.444Z,101971.03
2023-03-20T10:37:16.666Z,101980.56
2023-03-20T10:39:58.826Z,101970.72
2023-03-20T10:42:31.517Z,101975.13
2023-03-20T10:45:03.348Z,101971.19
2023-03-20T10:47:37.811Z,101977.53
2023-03-20T10:50:13.203Z,101974.03
2023-03-20T10:52:43.749Z,101974.66
2023-03-20T10:55:19.410Z,101974.34
2023-03-20T10:57:54.176Z,101973.41
2023-03-20T11:00:26.145Z,101965.94
2023-03-20T11:02:54.438Z,101979.75
2023-03-20T11:05:27.449Z,101967.03
2023-03-20T11:08:04.811Z,101968.00
2023-03-20T11:10:37.257Z,101965.13
2023-03-20T11:13:29.702Z,101959.56
2023-03-20T11:15:58.326Z,101954.78
2023-03-20T11:18:27.564Z,101955.56
2023-03-20T11:20:58.598Z,101964.78
2023-03-20T11:23:31.341Z,101950.97
2023-03-20T11:26:03.328Z,101956.38
2023-03-20T11:28:37.182Z,101953.47
2023-03-20T11:31:09.091Z,101956.66
2023-03-20T11:33:40.714Z,101951.44
2023-03-20T11:36:21.570Z,101951.75
2023-03-20T11:38:53.042Z,101956.50
2023-03-20T11:41:27.505Z,101951.06
2023-03-20T11:43:55.875Z,101943.75
2023-03-20T11:46:26.100Z,101950.63
2023-03-20T11:49:08.330Z,101957.97
2023-03-20T11:51:39.229Z,101953.34
2023-03-20T11:54:14.344Z,101944.09
2023-03-20T11:56:54.292Z,101946.16
2023-03-20T11:59:23.153Z,101933.09
2023-03-20T12:01:54.135Z,101928.16
2023-03-20T12:04:30.083Z,101932.63
2023-03-20T12:07:03.614Z,101919.59
2023-03-20T12:09:41.401Z,101928.16
2023-03-20T12:12:20.069Z,101920.53
2023-03-20T12:14:56.025Z,101922.09
2023-03-20T12:17:38.049Z,101917.50
2023-03-20T12:20:16.326Z,101898.41
2023-03-20T12:22:52.475Z,101899.84
2023-03-20T12:25:25.041Z,101902.69
2023-03-20T12:28:04.565Z,101894.25
2023-03-20T12:30:51.923Z,101890.44
2023-03-20T12:33:30.842Z,101892.81
2023-03-20T12:36:00.306Z,101888.47
2023-03-20T12:38:32.190Z,101889.72
2023-03-20T12:41:12.740Z,101883.16
2023-03-20T12:44:06.231Z,101886.59
2023-03-20T12:46:44.599Z,101895.34
2023-03-20T12:49:33.388Z,101888.63
2023-03-20T12:52:14.661Z,101888.81
2023-03-20T12:55:19.057Z,101899.13
2023-03-20T12:58:03.359Z,101883.53
2023-03-20T13:00:38.517Z,101883.03
2023-03-20T13:03:25.277Z,101881.91
2023-03-20T13:06:04.375Z,101889.25
2023-03-20T13:08:51.260Z,101886.69
2023-03-20T13:11:31.153Z,101889.69
2023-03-20T13:14:05.497Z,101878.84
2023-03-20T13:16:47.352Z,101883.13
2023-03-20T13:19:28.992Z,101859.03
2023-03-20T13:22:06.110Z,101870.13
2023-03-20T13:24:42.587Z,101864.88
2023-03-20T13:27:24.618Z,101854.53
2023-03-20T13:29:58.653Z,101856.91
2023-03-20T13:32:42.145Z,101857.72
2023-03-20T13:35:31.311Z,101861.69
2023-03-20T13:38:12.285Z,101858.50
2023-03-20T13:40:43.975Z,101846.88
2023-03-20T13:43:25.502Z,101853.88
2023-03-20T13:46:02.982Z,101844.16
2023-03-20T13:48:38.056Z,101839.88
2023-03-20T13:51:23.207Z,101837.03
2023-03-20T13:54:05.725Z,101840.84
2023-03-20T13:56:48.137Z,101837.84
2023-03-20T13:59:38.650Z,101841.19
2023-03-20T14:02:42.036Z,101839.59
2023-03-20T14:05:19.669Z,101836.91
2023-03-20T14:07:50.582Z,101827.66
2023-03-20T14:10:40.474Z,101824.94
2023-03-20T14:13:16.765Z,101831.31
2023-03-20T14:15:56.059Z,101835.41
2023-03-20T14:18:26.686Z,101825.94
2023-03-20T14:21:00.675Z,101835.44
2023-03-20T14:23:36.916Z,101826.00
2023-03-20T14:26:12.256Z,101826.25
2023-03-20T14:28:56.037Z,101830.34
2023-03-20T14:31:30.570Z,101825.69
2023-03-20T14:34:15.503Z,101815.47
2023-03-20T14:36:58.364Z,101816.34
2023-03-20T14:39:42.467Z,101812.06
2023-03-20T14:42:31.070Z,101805.84
2023-03-20T14:45:30.543Z,101808.13
2023-03-20T14:48:07.039Z,101796.50
2023-03-20T14:50:40.990Z,101793.97
2023-03-20T14:53:18.176Z,101789.69
2023-03-20T14:55:58.198Z,101793.19
2023-03-20T14:58:58.013Z,101795.53
2023-03-20T15:01:45.730Z,101786.19
2023-03-20T15:04:36.093Z,101784.81
2023-03-20T15:07:12.348Z,101778.00
2023-03-20T15:09:47.249Z,101785.69
2023-03-20T15:12:20.397Z,101768.81
2023-03-20T15:14:55.155Z,101766.59
2023-03-20T15:17:27.739Z,101761.97
2023-03-20T15:20:04.435Z,101756.53
2023-03-20T15:22:32.734Z,101756.53
2023-03-20T15:25:02.254Z,101760.38
2023-03-20T15:27:30.842Z,101756.41
2023-03-20T15:30:01.574Z,101753.25
2023-03-20T15:32:30.384Z,101751.66
2023-03-20T15:34:59.097Z,101758.22
2023-03-20T15:37:28.297Z,101760.25
2023-03-20T15:39:59.153Z,101753.38
2023-03-20T15:42:28.935Z,101760.84
2023-03-20T15:44:58.188Z,101750.44
2023-03-20T15:47:27.141Z,101750.34
2023-03-20T15:49:57.024Z,101744.91
2023-03-20T15:52:33.033Z,101742.31
2023-03-20T15:55:06.824Z,101741.16
2023-03-20T15:57:40.371Z,101739.94
2023-03-20T16:00:17.499Z,101740.75
2023-03-20T16:02:48.722Z,101744.25
2023-03-20T16:05:19.639Z,101743.00
2023-03-20T16:07:47.879Z,101735.19
2023-03-20T16:10:22.516Z,101735.88
2023-03-20T16:12:54.622Z,101738.91
2023-03-20T16:15:27.586Z,101735.75
2023-03-20T16:17:59.616Z,101739.25
2023-03-20T16:20:31.900Z,101727.63
2023-03-20T16:23:05.852Z,101741.16
2023-03-20T16:25:35.414Z,101735.41
2023-03-20T16:28:07.175Z,101737.00
2023-03-20T16:30:37.312Z,101738.59
2023-03-20T16:33:11.052Z,101740.50
2023-03-20T16:35:44.554Z,101738.59
2023-03-20T16:38:24.961Z,101736.28
2023-03-20T16:40:56.076Z,101735.19
2023-03-20T16:43:28.913Z,101732.50
2023-03-20T16:46:03.675Z,101731.81
2023-03-20T16:48:34.425Z,101734.06
2023-03-20T16:51:12.162Z,101744.00
2023-03-20T16:53:46.853Z,101741.47
2023-03-20T16:56:18.922Z,101734.03
2023-03-20T16:58:48.696Z,101728.97
2023-03-20T17:01:21.298Z,101729.75
2023-03-20T17:03:53.546Z,101737.88
2023-03-20T17:06:39.700Z,101738.66
2023-03-20T17:09:24.670Z,101742.16
2023-03-20T17:12:02.479Z,101743.31
2023-03-20T17:14:32.555Z,101731.34
2023-03-20T17:17:01.121Z,101731.34
2023-03-20T17:19:29.559Z,101729.75
2023-03-20T17:21:59.692Z,101739.00
2023-03-20T17:24:28.041Z,101727.69
2023-03-20T17:26:57.696Z,101729.25
2023-03-20T17:29:26.046Z,101738.53
2023-03-20T17:31:56.082Z,101736.94
2023-03-20T17:34:24.701Z,101733.44
2023-03-20T17:36:53.222Z,101727.69
2023-03-20T17:39:22.355Z,101723.75
2023-03-20T17:41:51.713Z,101718.34
2023-03-20T17:44:19.929Z,101731.09
2023-03-20T17:46:57.664Z,101723.75
2023-03-20T17:49:28.446Z,101736.94
2023-03-20T17:51:57.122Z,101739.22
2023-03-20T17:54:25.517Z,101742.72
2023-03-20T17:56:53.769Z,101734.91
2023-03-20T17:59:22.023Z,101747.66
2023-03-20T18:01:50.580Z,101748.47
2023-03-20T18:04:19.933Z,101744.47
2023-03-20T18:06:49.640Z,101746.41
2023-03-20T18:09:17.892Z,101749.09
2023-03-20T18:11:46.315Z,101754.53
2023-03-20T18:14:17.881Z,101747.53
2023-03-20T18:16:46.461Z,101750.69
2023-03-20T18:19:25.694Z,101745.28
2023-03-20T18:21:55.909Z,101746.72
2023-03-20T18:24:25.295Z,101741.66
2023-03-20T18:26:55.753Z,101747.53
2023-03-20T18:29:23.994Z,101736.34
2023-03-20T18:31:52.610Z,101757.22
2023-03-20T18:34:21.282Z,101751.81
2023-03-20T18:36:49.600Z,101745.59
2023-03-20T18:39:20.947Z,101749.44
2023-03-20T18:41:49.429Z,101743.22
2023-03-20T18:44:17.702Z,101741.31
2023-03-20T18:46:46.129Z,101745.47
2023-03-20T18:49:17.347Z,101738.19
2023-03-20T18:51:46.135Z,101742.78
2023-03-20T18:54:14.566Z,101741.97
2023-03-20T18:56:44.652Z,101745.81
2023-03-20T18:59:14.418Z,101741.66
2023-03-20T19:01:42.744Z,101748.66
2023-03-20T19:04:11.283Z,101744.03
2023-03-20T19:06:39.586Z,101745.94
2023-03-20T19:09:10.323Z,101742.44
2023-03-20T19:11:38.558Z,101747.53
2023-03-20T19:14:08.350Z,101745.59
2023-03-20T19:16:38.457Z,101734.78
2023-03-20T19:19:09.420Z,101743.34
2023-03-20T19:21:37.669Z,101737.94
2023-03-20T19:24:08.359Z,101737.63
2023-03-20T19:26:38.407Z,101733.00
2023-03-20T19:29:10.565Z,101727.59
2023-03-20T19:31:38.880Z,101722.47
2023-03-20T19:34:07.743Z,101721.69
2023-03-20T19:36:38.306Z,101722.03
2023-03-20T19:39:09.347Z,101724.72
2023-03-20T19:41:38.230Z,101716.59
2023-03-20T19:44:08.142Z,101719.31
2023-03-20T19:46:40.081Z,101716.28
2023-03-20T19:49:18.996Z,101715.97
2023-03-20T19:51:48.387Z,101719.78
2023-03-20T19:54:17.024Z,101722.47
2023-03-20T19:56:45.445Z,101721.38
2023-03-20T19:59:16.863Z,101724.09
2023-03-20T20:01:46.650Z,101712.13
2023-03-20T20:04:16.191Z,101715.63
2023-03-20T20:06:47.202Z,101717.97
2023-03-20T20:09:16.657Z,101719.09
2023-03-20T20:11:45.211Z,101717.97
2023-03-20T20:14:15.488Z,101716.38
2023-03-20T20:16:45.593Z,101718.34
2023-03-20T20:19:14.207Z,101710.97
2023-03-20T20:24:31.217Z,101716.06
2023-03-20T20:27:15.926Z,101707.59
2023-03-20T20:29:49.853Z,101716.22
2023-03-20T20:32:19.125Z,101716.31
2023-03-20T20:40:30.966Z,101709.91
2023-03-20T20:43:01.881Z,101704.47
2023-03-20T20:45:32.461Z,101709.22
2023-03-20T20:48:01.487Z,101706.19
2023-03-20T20:50:32.048Z,101705.41
2023-03-20T20:53:00.805Z,101708.09
2023-03-20T20:55:29.419Z,101704.59
2023-03-20T20:57:58.338Z,101704.28
2023-03-20T21:00:45.283Z,101707.44
2023-03-20T21:03:17.432Z,101705.94
2023-03-20T21:05:45.698Z,101713.75
2023-03-20T21:08:15.192Z,101709.13
2023-03-20T21:10:45.753Z,101701.34
2023-03-20T21:13:14.054Z,101701.34
2023-03-20T21:15:43.336Z,101702.13
2023-03-20T21:18:11.747Z,101702.94
2023-03-20T21:20:41.359Z,101699.09
2023-03-20T21:23:09.636Z,101703.38
2023-03-20T21:25:41.163Z,101711.19
2023-03-20T21:28:11.307Z,101712.75
2023-03-20T21:30:51.090Z,101706.22
2023-03-20T21:33:30.609Z,101708.91
2023-03-20T21:36:00.915Z,101708.59
2023-03-20T21:39:02.090Z,101707.13
2023-03-20T21:41:18.798Z,101705.19
2023-03-20T21:43:47.671Z,101708.38
2023-03-20T22:03:28.833Z,101703.41
2023-03-20T22:09:54.742Z,101699.22
2023-03-20T22:12:26.162Z,101703.84
2023-03-20T22:17:53.138Z,101711.19
2023-03-20T22:23:44.659Z,101711.97
2023-03-20T22:32:10.933Z,101713.44
2023-03-20T22:34:54.332Z,101709.94
2023-03-20T22:43:15.599Z,101702.72
2023-03-20T22:45:42.480Z,101701.63
2023-03-20T22:48:12.857Z,101701.63
2023-03-20T22:50:41.517Z,101701.63
2023-03-20T22:53:09.868Z,101703.63
2023-03-20T22:55:38.065Z,101697.06
2023-03-20T22:58:08.439Z,101700.28
2023-03-20T23:00:37.690Z,101701.38
2023-03-20T23:03:19.396Z,101690.22
2023-03-20T23:05:48.318Z,101701.38
2023-03-20T23:08:16.775Z,101698.22
2023-03-20T23:10:47.851Z,101698.22
2023-03-20T23:13:18.718Z,101688.53
2023-03-20T23:15:50.600Z,101690.44
2023-03-20T23:18:19.472Z,101693.50
2023-03-20T23:20:47.663Z,101695.06
2023-03-20T23:23:15.898Z,101690.78
2023-03-20T23:25:44.111Z,101695.41
2023-03-20T23:28:12.524Z,101690.31
2023-03-20T23:30:48.243Z,101694.13
2023-03-20T23:33:22.276Z,101688.25
2023-03-20T23:35:51.426Z,101688.25
2023-03-20T23:38:21.336Z,101690.63
2023-03-20T23:40:50.352Z,101684.88
2023-03-20T23:43:19.736Z,101686.00
2023-03-20T23:45:49.766Z,101677.53
2023-03-20T23:48:18.561Z,101691.09
2023-03-20T23:50:52.932Z,101679.47
2023-03-20T23:53:22.452Z,101681.03
2023-03-20T23:55:53.714Z,101678.31
2023-03-20T23:58:23.279Z,101678.66
